sensor_id;sensor_type;location;lat;lon;timestamp;temperature;humidity
6018;DHT22;3037;51.068;13.780;2022-11-15T00:01:35;8.40;99.90
6018;DHT22;3037;51.068;13.780;2022-11-15T00:04:03;8.40;1.00
6018;DHT22;3037;51.068;13.780;2022-11-15T00:06:28;8.30;99.90
6018;DHT22;3037;51.068;13.780;2022-11-15T00:08:54;8.30;40.20
6018;DHT22;3037;51.068;13.780;2022-11-15T00:11:20;8.30;99.90
6018;DHT22;3037;51.068;13.780;2022-11-15T00:13:45;8.30;99.90
6018;DHT22;3037;51.068;13.780;2022-11-15T00:16:11;8.30;99.90
6018;DHT22;3037;51.068;13.780;2022-11-15T00:18:38;8.30;1.00
6018;DHT22;3037;51.068;13.780;2022-11-15T00:21:05;8.20;1.00
6018;DHT22;3037;51.068;13.780;2022-11-15T00:23:33;8.20;99.90
6018;DHT22;3037;51.068;13.780;2022-11-15T00:25:58;8.20;1.00
6018;DHT22;3037;51.068;13.780;2022-11-15T00:28:24;8.20;1.00
6018;DHT22;3037;51.068;13.780;2022-11-15T00:30:50;8.20;1.00
6018;DHT22;3037;51.068;13.780;2022-11-15T00:33:16;8.20;1.00
6018;DHT22;3037;51.068;13.780;2022-11-15T00:35:42;8.20;99.90
6018;DHT22;3037;51.068;13.780;2022-11-15T00:38:07;8.20;1.00
6018;DHT22;3037;51.068;13.780;2022-11-15T00:40:33;8.20;99.90
6018;DHT22;3037;51.068;13.780;2022-11-15T00:42:58;8.20;1.00
6018;DHT22;3037;51.068;13.780;2022-11-15T00:45:25;8.40;99.90
6018;DHT22;3037;51.068;13.780;2022-11-15T00:47:51;8.20;99.90
6018;DHT22;3037;51.068;13.780;2022-11-15T00:50:17;8.20;1.00
6018;DHT22;3037;51.068;13.780;2022-11-15T00:52:43;8.20;1.00
6018;DHT22;3037;51.068;13.780;2022-11-15T00:55:18;8.20;1.00
6018;DHT22;3037;51.068;13.780;2022-11-15T00:57:44;8.20;1.00
6018;DHT22;3037;51.068;13.780;2022-11-15T01:00:11;8.30;99.90
6018;DHT22;3037;51.068;13.780;2022-11-15T01:02:37;8.30;99.90
6018;DHT22;3037;51.068;13.780;2022-11-15T01:05:03;8.20;99.90
6018;DHT22;3037;51.068;13.780;2022-11-15T01:07:29;8.10;1.00
6018;DHT22;3037;51.068;13.780;2022-11-15T01:09:54;8.10;1.00
6018;DHT22;3037;51.068;13.780;2022-11-15T01:12:20;8.10;79.50
6018;DHT22;3037;51.068;13.780;2022-11-15T01:14:45;8.10;1.00
6018;DHT22;3037;51.068;13.780;2022-11-15T01:17:11;8.20;99.90
6018;DHT22;3037;51.068;13.780;2022-11-15T01:19:36;8.20;1.00
6018;DHT22;3037;51.068;13.780;2022-11-15T01:22:02;8.20;99.90
6018;DHT22;3037;51.068;13.780;2022-11-15T01:24:27;8.20;1.00
6018;DHT22;3037;51.068;13.780;2022-11-15T01:26:53;8.20;99.90
6018;DHT22;3037;51.068;13.780;2022-11-15T01:29:19;8.20;99.90
6018;DHT22;3037;51.068;13.780;2022-11-15T01:31:44;8.30;1.00
6018;DHT22;3037;51.068;13.780;2022-11-15T01:34:10;8.40;1.00
6018;DHT22;3037;51.068;13.780;2022-11-15T01:36:35;8.40;1.00
6018;DHT22;3037;51.068;13.780;2022-11-15T01:39:01;8.40;1.00
6018;DHT22;3037;51.068;13.780;2022-11-15T01:41:29;8.40;1.00
6018;DHT22;3037;51.068;13.780;2022-11-15T01:46:56;8.40;1.00
6018;DHT22;3037;51.068;13.780;2022-11-15T01:49:23;8.30;1.00
6018;DHT22;3037;51.068;13.780;2022-11-15T01:51:49;8.40;99.90
6018;DHT22;3037;51.068;13.780;2022-11-15T01:54:18;8.30;99.90
6018;DHT22;3037;51.068;13.780;2022-11-15T01:56:50;8.40;99.90
6018;DHT22;3037;51.068;13.780;2022-11-15T01:59:18;8.30;99.90
6018;DHT22;3037;51.068;13.780;2022-11-15T02:01:44;8.30;1.00
6018;DHT22;3037;51.068;13.780;2022-11-15T02:04:13;8.30;99.90
6018;DHT22;3037;51.068;13.780;2022-11-15T02:06:41;8.30;99.90
6018;DHT22;3037;51.068;13.780;2022-11-15T02:09:07;8.30;1.00
6018;DHT22;3037;51.068;13.780;2022-11-15T02:11:33;8.30;99.90
6018;DHT22;3037;51.068;13.780;2022-11-15T02:14:00;8.30;99.90
6018;DHT22;3037;51.068;13.780;2022-11-15T02:17:01;8.30;15.60
6018;DHT22;3037;51.068;13.780;2022-11-15T02:25:01;8.10;1.00
6018;DHT22;3037;51.068;13.780;2022-11-15T02:27:59;8.10;99.90
6018;DHT22;3037;51.068;13.780;2022-11-15T02:41:20;8.20;1.00
6018;DHT22;3037;51.068;13.780;2022-11-15T02:44:17;8.20;1.00
6018;DHT22;3037;51.068;13.780;2022-11-15T02:46:43;8.10;1.00
6018;DHT22;3037;51.068;13.780;2022-11-15T02:49:32;8.00;1.00
6018;DHT22;3037;51.068;13.780;2022-11-15T02:51:59;8.00;1.00
6018;DHT22;3037;51.068;13.780;2022-11-15T02:54:28;8.10;1.00
6018;DHT22;3037;51.068;13.780;2022-11-15T02:56:58;8.00;22.90
6018;DHT22;3037;51.068;13.780;2022-11-15T03:02:31;8.00;1.00
6018;DHT22;3037;51.068;13.780;2022-11-15T03:07:54;7.90;1.00
6018;DHT22;3037;51.068;13.780;2022-11-15T03:16:09;8.10;99.90
6018;DHT22;3037;51.068;13.780;2022-11-15T03:18:43;8.00;1.00
6018;DHT22;3037;51.068;13.780;2022-11-15T03:21:12;8.00;1.00
6018;DHT22;3037;51.068;13.780;2022-11-15T03:23:40;7.90;1.00
6018;DHT22;3037;51.068;13.780;2022-11-15T03:26:09;7.90;1.00
6018;DHT22;3037;51.068;13.780;2022-11-15T03:28:42;7.90;99.90
6018;DHT22;3037;51.068;13.780;2022-11-15T03:31:11;7.90;72.80
6018;DHT22;3037;51.068;13.780;2022-11-15T03:33:57;7.90;99.90
6018;DHT22;3037;51.068;13.780;2022-11-15T03:36:25;7.90;99.90
6018;DHT22;3037;51.068;13.780;2022-11-15T03:38:54;7.80;1.00
6018;DHT22;3037;51.068;13.780;2022-11-15T03:47:17;7.90;14.20
6018;DHT22;3037;51.068;13.780;2022-11-15T03:49:50;7.80;1.00
6018;DHT22;3037;51.068;13.780;2022-11-15T03:52:21;7.70;99.90
6018;DHT22;3037;51.068;13.780;2022-11-15T03:54:55;7.70;99.90
6018;DHT22;3037;51.068;13.780;2022-11-15T03:57:21;7.70;1.00
6018;DHT22;3037;51.068;13.780;2022-11-15T03:59:47;7.80;99.90
6018;DHT22;3037;51.068;13.780;2022-11-15T04:02:13;7.70;1.00
6018;DHT22;3037;51.068;13.780;2022-11-15T04:04:39;7.70;1.00
6018;DHT22;3037;51.068;13.780;2022-11-15T04:07:05;7.70;99.90
6018;DHT22;3037;51.068;13.780;2022-11-15T04:09:30;7.70;1.00
6018;DHT22;3037;51.068;13.780;2022-11-15T04:11:56;7.70;1.00
6018;DHT22;3037;51.068;13.780;2022-11-15T04:14:21;7.70;1.00
6018;DHT22;3037;51.068;13.780;2022-11-15T04:16:47;7.70;1.00
6018;DHT22;3037;51.068;13.780;2022-11-15T04:19:13;7.60;99.40
6018;DHT22;3037;51.068;13.780;2022-11-15T04:21:57;7.60;1.00
6018;DHT22;3037;51.068;13.780;2022-11-15T04:24:41;7.80;1.00
6018;DHT22;3037;51.068;13.780;2022-11-15T04:27:06;7.70;99.90
6018;DHT22;3037;51.068;13.780;2022-11-15T04:29:32;7.60;1.00
6018;DHT22;3037;51.068;13.780;2022-11-15T04:32:02;7.60;1.00
6018;DHT22;3037;51.068;13.780;2022-11-15T04:34:28;7.50;1.00
6018;DHT22;3037;51.068;13.780;2022-11-15T04:36:53;7.60;1.00
6018;DHT22;3037;51.068;13.780;2022-11-15T04:39:37;7.60;99.90
6018;DHT22;3037;51.068;13.780;2022-11-15T04:42:03;7.40;1.00
6018;DHT22;3037;51.068;13.780;2022-11-15T04:44:29;7.50;99.90
6018;DHT22;3037;51.068;13.780;2022-11-15T04:46:54;7.50;1.00
6018;DHT22;3037;51.068;13.780;2022-11-15T04:49:20;7.60;1.00
6018;DHT22;3037;51.068;13.780;2022-11-15T04:51:46;7.60;99.90
6018;DHT22;3037;51.068;13.780;2022-11-15T04:54:11;7.60;99.90
6018;DHT22;3037;51.068;13.780;2022-11-15T04:56:37;7.60;1.00
6018;DHT22;3037;51.068;13.780;2022-11-15T04:59:02;7.50;99.90
6018;DHT22;3037;51.068;13.780;2022-11-15T05:01:28;7.60;1.00
6018;DHT22;3037;51.068;13.780;2022-11-15T05:03:53;7.60;1.00
6018;DHT22;3037;51.068;13.780;2022-11-15T05:06:37;7.60;99.90
6018;DHT22;3037;51.068;13.780;2022-11-15T05:09:03;7.60;99.90
6018;DHT22;3037;51.068;13.780;2022-11-15T05:11:28;7.60;99.90
6018;DHT22;3037;51.068;13.780;2022-11-15T05:13:54;7.60;47.90
6018;DHT22;3037;51.068;13.780;2022-11-15T05:16:20;7.70;99.90
6018;DHT22;3037;51.068;13.780;2022-11-15T05:18:45;7.70;1.00
6018;DHT22;3037;51.068;13.780;2022-11-15T05:21:13;7.60;1.00
6018;DHT22;3037;51.068;13.780;2022-11-15T05:23:39;7.60;1.00
6018;DHT22;3037;51.068;13.780;2022-11-15T05:26:06;7.50;1.00
6018;DHT22;3037;51.068;13.780;2022-11-15T05:28:32;7.40;1.00
6018;DHT22;3037;51.068;13.780;2022-11-15T05:31:06;7.40;1.00
6018;DHT22;3037;51.068;13.780;2022-11-15T05:33:33;7.40;99.90
6018;DHT22;3037;51.068;13.780;2022-11-15T05:36:16;7.40;1.00
6018;DHT22;3037;51.068;13.780;2022-11-15T05:38:44;7.50;60.40
6018;DHT22;3037;51.068;13.780;2022-11-15T05:41:10;7.40;1.00
6018;DHT22;3037;51.068;13.780;2022-11-15T05:43:37;7.50;99.90
6018;DHT22;3037;51.068;13.780;2022-11-15T05:46:04;7.60;1.00
6018;DHT22;3037;51.068;13.780;2022-11-15T05:48:31;7.60;1.00
6018;DHT22;3037;51.068;13.780;2022-11-15T05:50:57;7.50;1.00
6018;DHT22;3037;51.068;13.780;2022-11-15T05:53:24;7.50;99.90
6018;DHT22;3037;51.068;13.780;2022-11-15T05:55:51;7.50;99.90
6018;DHT22;3037;51.068;13.780;2022-11-15T05:58:18;7.40;1.00
6018;DHT22;3037;51.068;13.780;2022-11-15T06:00:44;7.30;17.90
6018;DHT22;3037;51.068;13.780;2022-11-15T06:03:10;7.20;1.00
6018;DHT22;3037;51.068;13.780;2022-11-15T06:05:35;7.20;1.00
6018;DHT22;3037;51.068;13.780;2022-11-15T06:08:01;7.20;1.00
6018;DHT22;3037;51.068;13.780;2022-11-15T06:10:26;7.30;1.00
6018;DHT22;3037;51.068;13.780;2022-11-15T06:12:59;7.20;1.00
6018;DHT22;3037;51.068;13.780;2022-11-15T06:15:26;7.30;1.00
6018;DHT22;3037;51.068;13.780;2022-11-15T06:17:51;7.30;1.00
6018;DHT22;3037;51.068;13.780;2022-11-15T06:20:17;7.50;1.00
6018;DHT22;3037;51.068;13.780;2022-11-15T06:22:43;7.30;99.90
6018;DHT22;3037;51.068;13.780;2022-11-15T06:25:09;7.40;99.90
6018;DHT22;3037;51.068;13.780;2022-11-15T06:27:34;7.40;99.90
6018;DHT22;3037;51.068;13.780;2022-11-15T06:30:00;7.40;99.90
6018;DHT22;3037;51.068;13.780;2022-11-15T06:32:25;7.50;1.00
6018;DHT22;3037;51.068;13.780;2022-11-15T06:34:51;7.50;99.90
6018;DHT22;3037;51.068;13.780;2022-11-15T06:37:17;7.50;1.00
6018;DHT22;3037;51.068;13.780;2022-11-15T06:39:42;7.40;1.00
6018;DHT22;3037;51.068;13.780;2022-11-15T06:42:08;7.50;1.00
6018;DHT22;3037;51.068;13.780;2022-11-15T06:44:34;7.60;1.00
6018;DHT22;3037;51.068;13.780;2022-11-15T06:46:59;7.70;1.00
6018;DHT22;3037;51.068;13.780;2022-11-15T06:49:25;7.60;1.00
6018;DHT22;3037;51.068;13.780;2022-11-15T06:51:50;7.50;1.00
6018;DHT22;3037;51.068;13.780;2022-11-15T06:54:16;7.50;99.90
6018;DHT22;3037;51.068;13.780;2022-11-15T06:56:41;7.60;99.90
6018;DHT22;3037;51.068;13.780;2022-11-15T06:59:07;7.60;1.00
6018;DHT22;3037;51.068;13.780;2022-11-15T07:01:32;7.70;99.90
6018;DHT22;3037;51.068;13.780;2022-11-15T07:03:58;7.90;99.90
6018;DHT22;3037;51.068;13.780;2022-11-15T07:06:23;8.10;99.90
6018;DHT22;3037;51.068;13.780;2022-11-15T07:08:49;8.10;1.00
6018;DHT22;3037;51.068;13.780;2022-11-15T07:11:14;8.20;1.00
6018;DHT22;3037;51.068;13.780;2022-11-15T07:13:40;8.40;1.00
6018;DHT22;3037;51.068;13.780;2022-11-15T07:16:07;8.60;1.00
6018;DHT22;3037;51.068;13.780;2022-11-15T07:18:38;8.70;1.00
6018;DHT22;3037;51.068;13.780;2022-11-15T07:21:05;8.80;1.00
6018;DHT22;3037;51.068;13.780;2022-11-15T07:23:31;8.80;1.00
6018;DHT22;3037;51.068;13.780;2022-11-15T07:25:58;8.90;1.00
6018;DHT22;3037;51.068;13.780;2022-11-15T07:28:25;9.00;1.00
6018;DHT22;3037;51.068;13.780;2022-11-15T07:30:50;9.20;99.90
6018;DHT22;3037;51.068;13.780;2022-11-15T07:33:16;9.30;99.90
6018;DHT22;3037;51.068;13.780;2022-11-15T07:35:41;9.50;99.90
6018;DHT22;3037;51.068;13.780;2022-11-15T07:38:08;10.40;1.00
6018;DHT22;3037;51.068;13.780;2022-11-15T07:40:34;13.10;1.00
6018;DHT22;3037;51.068;13.780;2022-11-15T07:43:04;14.60;1.00
6018;DHT22;3037;51.068;13.780;2022-11-15T07:45:31;15.40;1.00
6018;DHT22;3037;51.068;13.780;2022-11-15T07:47:58;16.20;1.00
6018;DHT22;3037;51.068;13.780;2022-11-15T07:50:25;16.60;1.00
6018;DHT22;3037;51.068;13.780;2022-11-15T07:52:58;18.00;1.00
6018;DHT22;3037;51.068;13.780;2022-11-15T07:55:25;19.10;1.00
6018;DHT22;3037;51.068;13.780;2022-11-15T07:57:50;19.90;1.00
6018;DHT22;3037;51.068;13.780;2022-11-15T08:00:16;20.10;1.00
6018;DHT22;3037;51.068;13.780;2022-11-15T08:02:42;20.30;1.00
6018;DHT22;3037;51.068;13.780;2022-11-15T08:05:08;20.10;1.00
6018;DHT22;3037;51.068;13.780;2022-11-15T08:07:33;20.90;1.00
6018;DHT22;3037;51.068;13.780;2022-11-15T08:09:59;21.10;1.00
6018;DHT22;3037;51.068;13.780;2022-11-15T08:12:27;20.70;1.00
6018;DHT22;3037;51.068;13.780;2022-11-15T08:14:54;21.40;1.00
6018;DHT22;3037;51.068;13.780;2022-11-15T08:17:20;21.70;1.00
6018;DHT22;3037;51.068;13.780;2022-11-15T08:19:46;21.70;1.00
6018;DHT22;3037;51.068;13.780;2022-11-15T08:22:11;21.20;1.00
6018;DHT22;3037;51.068;13.780;2022-11-15T08:24:38;22.20;1.00
6018;DHT22;3037;51.068;13.780;2022-11-15T08:27:03;22.40;1.00
6018;DHT22;3037;51.068;13.780;2022-11-15T08:29:29;22.80;1.00
6018;DHT22;3037;51.068;13.780;2022-11-15T08:31:55;22.40;1.00
6018;DHT22;3037;51.068;13.780;2022-11-15T08:34:21;22.60;1.00
6018;DHT22;3037;51.068;13.780;2022-11-15T08:36:47;22.70;1.00
6018;DHT22;3037;51.068;13.780;2022-11-15T08:39:12;22.90;1.00
6018;DHT22;3037;51.068;13.780;2022-11-15T08:41:38;24.20;1.00
6018;DHT22;3037;51.068;13.780;2022-11-15T08:44:04;24.20;1.00
6018;DHT22;3037;51.068;13.780;2022-11-15T08:46:30;25.20;1.00
6018;DHT22;3037;51.068;13.780;2022-11-15T08:48:55;25.00;1.00
6018;DHT22;3037;51.068;13.780;2022-11-15T08:51:21;25.10;1.00
6018;DHT22;3037;51.068;13.780;2022-11-15T08:53:46;25.20;1.00
6018;DHT22;3037;51.068;13.780;2022-11-15T08:56:14;23.20;1.00
6018;DHT22;3037;51.068;13.780;2022-11-15T08:58:40;22.90;1.00
6018;DHT22;3037;51.068;13.780;2022-11-15T09:01:06;23.90;1.00
6018;DHT22;3037;51.068;13.780;2022-11-15T09:03:40;24.20;1.00
6018;DHT22;3037;51.068;13.780;2022-11-15T09:06:05;24.90;1.00
6018;DHT22;3037;51.068;13.780;2022-11-15T09:08:31;25.60;1.00
6018;DHT22;3037;51.068;13.780;2022-11-15T09:10:57;24.10;1.00
6018;DHT22;3037;51.068;13.780;2022-11-15T09:13:22;24.50;1.00
6018;DHT22;3037;51.068;13.780;2022-11-15T09:15:48;24.90;1.00
6018;DHT22;3037;51.068;13.780;2022-11-15T09:18:13;25.30;1.00
6018;DHT22;3037;51.068;13.780;2022-11-15T09:20:39;25.30;1.00
6018;DHT22;3037;51.068;13.780;2022-11-15T09:23:05;26.50;1.00
6018;DHT22;3037;51.068;13.780;2022-11-15T09:25:31;25.30;1.00
6018;DHT22;3037;51.068;13.780;2022-11-15T09:27:57;25.90;1.00
6018;DHT22;3037;51.068;13.780;2022-11-15T09:30:24;25.00;1.00
6018;DHT22;3037;51.068;13.780;2022-11-15T09:32:50;26.10;1.00
6018;DHT22;3037;51.068;13.780;2022-11-15T09:35:16;26.10;1.00
6018;DHT22;3037;51.068;13.780;2022-11-15T09:37:42;25.70;1.00
6018;DHT22;3037;51.068;13.780;2022-11-15T09:40:11;25.70;1.00
6018;DHT22;3037;51.068;13.780;2022-11-15T09:42:52;25.60;1.00
6018;DHT22;3037;51.068;13.780;2022-11-15T09:45:23;26.50;1.00
6018;DHT22;3037;51.068;13.780;2022-11-15T09:48:08;26.60;1.00
6018;DHT22;3037;51.068;13.780;2022-11-15T09:50:51;26.60;1.00
6018;DHT22;3037;51.068;13.780;2022-11-15T09:53:27;27.00;1.00
6018;DHT22;3037;51.068;13.780;2022-11-15T09:56:00;25.60;1.00
6018;DHT22;3037;51.068;13.780;2022-11-15T10:01:56;26.40;1.00
6018;DHT22;3037;51.068;13.780;2022-11-15T10:04:25;26.20;1.00
6018;DHT22;3037;51.068;13.780;2022-11-15T10:07:01;25.50;1.00
6018;DHT22;3037;51.068;13.780;2022-11-15T10:12:09;26.60;1.00
6018;DHT22;3037;51.068;13.780;2022-11-15T10:14:36;25.80;1.00
6018;DHT22;3037;51.068;13.780;2022-11-15T10:20:24;26.00;1.00
6018;DHT22;3037;51.068;13.780;2022-11-15T10:22:50;26.00;1.00
6018;DHT22;3037;51.068;13.780;2022-11-15T10:25:28;26.40;1.00
6018;DHT22;3037;51.068;13.780;2022-11-15T10:28:01;24.70;1.00
6018;DHT22;3037;51.068;13.780;2022-11-15T10:30:39;25.60;1.00
6018;DHT22;3037;51.068;13.780;2022-11-15T10:41:18;24.40;1.00
6018;DHT22;3037;51.068;13.780;2022-11-15T10:43:45;25.40;1.00
6018;DHT22;3037;51.068;13.780;2022-11-15T10:46:26;25.00;1.00
6018;DHT22;3037;51.068;13.780;2022-11-15T10:48:52;24.80;1.00
6018;DHT22;3037;51.068;13.780;2022-11-15T10:51:24;25.30;1.00
6018;DHT22;3037;51.068;13.780;2022-11-15T10:53:54;24.40;1.00
6018;DHT22;3037;51.068;13.780;2022-11-15T10:56:23;24.60;1.00
6018;DHT22;3037;51.068;13.780;2022-11-15T10:58:57;23.80;1.00
6018;DHT22;3037;51.068;13.780;2022-11-15T11:01:27;22.30;1.00
6018;DHT22;3037;51.068;13.780;2022-11-15T11:04:06;21.30;1.00
6018;DHT22;3037;51.068;13.780;2022-11-15T11:06:54;21.40;1.00
6018;DHT22;3037;51.068;13.780;2022-11-15T11:09:37;20.90;1.00
6018;DHT22;3037;51.068;13.780;2022-11-15T11:12:04;21.30;1.00
6018;DHT22;3037;51.068;13.780;2022-11-15T11:14:34;20.60;1.00
6018;DHT22;3037;51.068;13.780;2022-11-15T11:17:16;20.50;1.00
6018;DHT22;3037;51.068;13.780;2022-11-15T11:36:40;17.90;1.00
6018;DHT22;3037;51.068;13.780;2022-11-15T11:44:41;17.60;1.00
6018;DHT22;3037;51.068;13.780;2022-11-15T11:47:17;17.80;1.00
6018;DHT22;3037;51.068;13.780;2022-11-15T11:49:46;18.00;1.00
6018;DHT22;3037;51.068;13.780;2022-11-15T11:55:11;17.60;1.00
6018;DHT22;3037;51.068;13.780;2022-11-15T12:00:20;17.40;1.00
6018;DHT22;3037;51.068;13.780;2022-11-15T12:05:33;16.90;1.00
6018;DHT22;3037;51.068;13.780;2022-11-15T12:08:31;16.80;1.00
6018;DHT22;3037;51.068;13.780;2022-11-15T12:13:34;16.80;1.00
6018;DHT22;3037;51.068;13.780;2022-11-15T12:16:08;16.70;1.00
6018;DHT22;3037;51.068;13.780;2022-11-15T12:18:35;16.60;1.00
6018;DHT22;3037;51.068;13.780;2022-11-15T12:21:13;16.90;1.00
6018;DHT22;3037;51.068;13.780;2022-11-15T12:23:52;16.80;1.00
6018;DHT22;3037;51.068;13.780;2022-11-15T12:26:26;15.50;1.00
6018;DHT22;3037;51.068;13.780;2022-11-15T12:28:59;15.20;1.00
6018;DHT22;3037;51.068;13.780;2022-11-15T12:31:45;15.20;1.00
6018;DHT22;3037;51.068;13.780;2022-11-15T12:34:34;15.30;1.00
6018;DHT22;3037;51.068;13.780;2022-11-15T12:37:01;15.40;1.00
6018;DHT22;3037;51.068;13.780;2022-11-15T12:44:57;15.30;1.00
6018;DHT22;3037;51.068;13.780;2022-11-15T12:47:26;15.10;1.00
6018;DHT22;3037;51.068;13.780;2022-11-15T12:49:52;14.90;1.00
6018;DHT22;3037;51.068;13.780;2022-11-15T12:52:18;14.60;1.00
6018;DHT22;3037;51.068;13.780;2022-11-15T12:54:55;14.90;1.00
6018;DHT22;3037;51.068;13.780;2022-11-15T12:57:27;15.10;1.00
6018;DHT22;3037;51.068;13.780;2022-11-15T12:59:59;15.20;1.00
6018;DHT22;3037;51.068;13.780;2022-11-15T13:17:39;14.50;1.00
6018;DHT22;3037;51.068;13.780;2022-11-15T13:33:58;14.10;1.00
6018;DHT22;3037;51.068;13.780;2022-11-15T13:36:28;13.80;1.00
6018;DHT22;3037;51.068;13.780;2022-11-15T13:39:12;13.70;1.00
6018;DHT22;3037;51.068;13.780;2022-11-15T13:41:46;13.40;1.00
6018;DHT22;3037;51.068;13.780;2022-11-15T13:44:20;13.50;1.00
6018;DHT22;3037;51.068;13.780;2022-11-15T13:46:46;13.40;1.00
6018;DHT22;3037;51.068;13.780;2022-11-15T13:49:12;13.10;1.00
6018;DHT22;3037;51.068;13.780;2022-11-15T13:51:46;13.20;1.00
6018;DHT22;3037;51.068;13.780;2022-11-15T13:56:44;13.00;1.00
6018;DHT22;3037;51.068;13.780;2022-11-15T13:59:15;12.90;1.00
6018;DHT22;3037;51.068;13.780;2022-11-15T14:01:43;13.10;1.00
6018;DHT22;3037;51.068;13.780;2022-11-15T14:04:13;12.70;1.00
6018;DHT22;3037;51.068;13.780;2022-11-15T14:06:51;12.50;1.00
6018;DHT22;3037;51.068;13.780;2022-11-15T14:11:57;12.20;1.00
6018;DHT22;3037;51.068;13.780;2022-11-15T14:14:27;12.00;1.00
6018;DHT22;3037;51.068;13.780;2022-11-15T14:16:55;12.10;1.00
6018;DHT22;3037;51.068;13.780;2022-11-15T14:24:34;12.40;1.00
6018;DHT22;3037;51.068;13.780;2022-11-15T14:27:20;12.50;1.00
6018;DHT22;3037;51.068;13.780;2022-11-15T14:29:47;12.20;1.00
6018;DHT22;3037;51.068;13.780;2022-11-15T14:32:26;12.10;1.00
6018;DHT22;3037;51.068;13.780;2022-11-15T14:35:00;11.80;1.00
6018;DHT22;3037;51.068;13.780;2022-11-15T14:39:52;10.80;1.00
6018;DHT22;3037;51.068;13.780;2022-11-15T14:42:18;10.80;1.00
6018;DHT22;3037;51.068;13.780;2022-11-15T14:44:44;10.50;1.00
6018;DHT22;3037;51.068;13.780;2022-11-15T14:47:10;10.60;1.00
6018;DHT22;3037;51.068;13.780;2022-11-15T14:49:36;10.60;1.00
6018;DHT22;3037;51.068;13.780;2022-11-15T14:52:01;10.40;1.00
6018;DHT22;3037;51.068;13.780;2022-11-15T14:54:27;10.20;1.00
6018;DHT22;3037;51.068;13.780;2022-11-15T14:56:52;10.20;1.00
6018;DHT22;3037;51.068;13.780;2022-11-15T14:59:18;10.40;1.00
6018;DHT22;3037;51.068;13.780;2022-11-15T15:01:43;10.00;1.00
6018;DHT22;3037;51.068;13.780;2022-11-15T15:04:10;9.70;1.00
6018;DHT22;3037;51.068;13.780;2022-11-15T15:06:36;9.60;1.00
6018;DHT22;3037;51.068;13.780;2022-11-15T15:09:02;9.50;1.00
6018;DHT22;3037;51.068;13.780;2022-11-15T15:11:30;9.40;1.00
6018;DHT22;3037;51.068;13.780;2022-11-15T15:13:56;9.10;1.00
6018;DHT22;3037;51.068;13.780;2022-11-15T15:16:24;9.00;9.90
6018;DHT22;3037;51.068;13.780;2022-11-15T15:18:50;9.00;57.70
6018;DHT22;3037;51.068;13.780;2022-11-15T15:23:44;8.90;46.90
6018;DHT22;3037;51.068;13.780;2022-11-15T15:26:09;8.80;99.90
6018;DHT22;3037;51.068;13.780;2022-11-15T15:28:35;8.60;99.90
6018;DHT22;3037;51.068;13.780;2022-11-15T15:31:01;8.50;99.90
6018;DHT22;3037;51.068;13.780;2022-11-15T15:33:26;8.50;99.90
6018;DHT22;3037;51.068;13.780;2022-11-15T15:35:52;8.40;1.00
6018;DHT22;3037;51.068;13.780;2022-11-15T15:38:18;8.30;1.00
6018;DHT22;3037;51.068;13.780;2022-11-15T15:40:43;8.30;1.00
6018;DHT22;3037;51.068;13.780;2022-11-15T15:43:09;8.20;1.00
6018;DHT22;3037;51.068;13.780;2022-11-15T15:45:37;8.10;1.00
6018;DHT22;3037;51.068;13.780;2022-11-15T15:48:04;8.10;1.00
6018;DHT22;3037;51.068;13.780;2022-11-15T15:50:33;8.00;1.00
6018;DHT22;3037;51.068;13.780;2022-11-15T15:53:00;7.90;1.00
6018;DHT22;3037;51.068;13.780;2022-11-15T15:55:26;7.90;99.90
6018;DHT22;3037;51.068;13.780;2022-11-15T15:57:52;7.80;99.90
6018;DHT22;3037;51.068;13.780;2022-11-15T16:00:18;7.60;1.00
6018;DHT22;3037;51.068;13.780;2022-11-15T16:02:44;7.60;1.00
6018;DHT22;3037;51.068;13.780;2022-11-15T16:05:11;7.60;1.00
6018;DHT22;3037;51.068;13.780;2022-11-15T16:07:37;7.60;99.90
6018;DHT22;3037;51.068;13.780;2022-11-15T16:10:23;7.50;99.90
6018;DHT22;3037;51.068;13.780;2022-11-15T16:12:50;7.90;1.00
6018;DHT22;3037;51.068;13.780;2022-11-15T16:15:16;7.60;99.90
6018;DHT22;3037;51.068;13.780;2022-11-15T16:17:52;7.40;1.00
6018;DHT22;3037;51.068;13.780;2022-11-15T16:20:32;7.90;99.90
6018;DHT22;3037;51.068;13.780;2022-11-15T16:22:58;7.40;1.00
6018;DHT22;3037;51.068;13.780;2022-11-15T16:25:24;7.40;99.90
6018;DHT22;3037;51.068;13.780;2022-11-15T16:27:50;7.30;1.00
6018;DHT22;3037;51.068;13.780;2022-11-15T16:30:17;7.30;1.00
6018;DHT22;3037;51.068;13.780;2022-11-15T16:32:43;7.30;99.90
6018;DHT22;3037;51.068;13.780;2022-11-15T16:35:13;7.20;62.60
6018;DHT22;3037;51.068;13.780;2022-11-15T16:37:39;7.10;99.90
6018;DHT22;3037;51.068;13.780;2022-11-15T16:40:22;7.10;1.00
6018;DHT22;3037;51.068;13.780;2022-11-15T16:42:49;7.00;99.90
6018;DHT22;3037;51.068;13.780;2022-11-15T16:45:14;7.20;1.00
6018;DHT22;3037;51.068;13.780;2022-11-15T16:47:40;7.10;1.00
6018;DHT22;3037;51.068;13.780;2022-11-15T16:50:06;6.90;1.00
6018;DHT22;3037;51.068;13.780;2022-11-15T16:52:31;7.00;70.80
6018;DHT22;3037;51.068;13.780;2022-11-15T16:54:57;6.90;1.00
6018;DHT22;3037;51.068;13.780;2022-11-15T16:57:22;6.90;1.00
6018;DHT22;3037;51.068;13.780;2022-11-15T16:59:48;7.10;1.00
6018;DHT22;3037;51.068;13.780;2022-11-15T17:02:13;7.00;1.00
6018;DHT22;3037;51.068;13.780;2022-11-15T17:04:39;6.90;1.00
6018;DHT22;3037;51.068;13.780;2022-11-15T17:07:05;6.80;1.00
6018;DHT22;3037;51.068;13.780;2022-11-15T17:09:31;6.80;1.00
6018;DHT22;3037;51.068;13.780;2022-11-15T17:11:57;6.90;76.30
6018;DHT22;3037;51.068;13.780;2022-11-15T17:14:22;6.80;1.00
6018;DHT22;3037;51.068;13.780;2022-11-15T17:16:48;6.60;1.00
6018;DHT22;3037;51.068;13.780;2022-11-15T17:19:16;6.60;1.00
6018;DHT22;3037;51.068;13.780;2022-11-15T17:21:43;6.60;1.00
6018;DHT22;3037;51.068;13.780;2022-11-15T17:24:09;6.60;1.00
6018;DHT22;3037;51.068;13.780;2022-11-15T17:26:35;6.60;99.90
6018;DHT22;3037;51.068;13.780;2022-11-15T17:29:01;6.70;99.90
6018;DHT22;3037;51.068;13.780;2022-11-15T17:31:28;6.70;1.00
6018;DHT22;3037;51.068;13.780;2022-11-15T17:33:59;6.60;1.00
6018;DHT22;3037;51.068;13.780;2022-11-15T17:36:25;6.70;1.00
6018;DHT22;3037;51.068;13.780;2022-11-15T17:38:50;6.50;1.00
6018;DHT22;3037;51.068;13.780;2022-11-15T17:41:17;6.50;99.90
6018;DHT22;3037;51.068;13.780;2022-11-15T17:43:43;6.50;1.00
6018;DHT22;3037;51.068;13.780;2022-11-15T17:46:16;6.40;1.00
6018;DHT22;3037;51.068;13.780;2022-11-15T17:48:43;6.40;1.00
6018;DHT22;3037;51.068;13.780;2022-11-15T17:51:11;6.40;1.00
6018;DHT22;3037;51.068;13.780;2022-11-15T17:53:39;6.40;1.00
6018;DHT22;3037;51.068;13.780;2022-11-15T17:56:08;6.40;1.00
6018;DHT22;3037;51.068;13.780;2022-11-15T17:58:34;6.40;99.90
6018;DHT22;3037;51.068;13.780;2022-11-15T18:01:21;6.30;99.90
6018;DHT22;3037;51.068;13.780;2022-11-15T18:03:47;6.30;33.50
6018;DHT22;3037;51.068;13.780;2022-11-15T18:06:14;6.30;1.00
6018;DHT22;3037;51.068;13.780;2022-11-15T18:08:41;6.40;1.00
6018;DHT22;3037;51.068;13.780;2022-11-15T18:11:11;6.30;1.00
6018;DHT22;3037;51.068;13.780;2022-11-15T18:13:39;6.30;1.00
6018;DHT22;3037;51.068;13.780;2022-11-15T18:16:07;6.30;1.00
6018;DHT22;3037;51.068;13.780;2022-11-15T18:18:34;6.30;85.80
6018;DHT22;3037;51.068;13.780;2022-11-15T18:21:14;6.30;99.90
6018;DHT22;3037;51.068;13.780;2022-11-15T18:23:41;6.30;99.90
6018;DHT22;3037;51.068;13.780;2022-11-15T18:26:10;6.30;99.90
6018;DHT22;3037;51.068;13.780;2022-11-15T18:28:37;6.20;1.00
6018;DHT22;3037;51.068;13.780;2022-11-15T18:33:43;6.20;99.90
6018;DHT22;3037;51.068;13.780;2022-11-15T18:36:11;6.10;1.00